sensor_id;sensor_type;location;lat;lon;timestamp;pressure;altitude;pressure_sealevel;temperature;humidity
60852;BME280;48553;50.766;2.900;2022-12-08T00:02:22;100671.81;;;3.98;86.03
60852;BME280;48553;50.766;2.900;2022-12-08T00:05:22;100675.31;;;3.99;85.83
60852;BME280;48553;50.766;2.900;2022-12-08T00:08:42;100663.97;;;3.97;85.98
60852;BME280;48553;50.766;2.900;2022-12-08T00:12:03;100660.16;;;3.98;86.07
60852;BME280;48553;50.766;2.900;2022-12-08T00:15:05;100662.38;;;3.96;85.93
60852;BME280;48553;50.766;2.900;2022-12-08T00:18:05;100652.84;;;3.98;86.01
60852;BME280;48553;50.766;2.900;2022-12-08T00:21:06;100654.22;;;3.96;86.06
60852;BME280;48553;50.766;2.900;2022-12-08T00:24:06;100649.91;;;3.95;86.07
60852;BME280;48553;50.766;2.900;2022-12-08T00:27:08;100643.66;;;3.94;86.03
60852;BME280;48553;50.766;2.900;2022-12-08T00:30:09;100635.25;;;3.96;86.25
60852;BME280;48553;50.766;2.900;2022-12-08T00:33:10;100642.88;;;3.94;86.06
60852;BME280;48553;50.766;2.900;2022-12-08T00:36:12;100630.44;;;3.93;86.23
60852;BME280;48553;50.766;2.900;2022-12-08T00:39:14;100640.97;;;3.94;85.99
60852;BME280;48553;50.766;2.900;2022-12-08T00:42:15;100632.81;;;3.94;85.86
60852;BME280;48553;50.766;2.900;2022-12-08T00:45:16;100633.44;;;3.91;85.97
60852;BME280;48553;50.766;2.900;2022-12-08T00:48:16;100628.00;;;3.91;85.90
60852;BME280;48553;50.766;2.900;2022-12-08T00:51:17;100629.41;;;3.89;86.08
60852;BME280;48553;50.766;2.900;2022-12-08T00:54:18;100625.56;;;3.90;86.04
60852;BME280;48553;50.766;2.900;2022-12-08T00:57:18;100627.78;;;3.88;85.86
60852;BME280;48553;50.766;2.900;2022-12-08T01:00:19;100622.88;;;3.90;85.74
60852;BME280;48553;50.766;2.900;2022-12-08T01:03:19;100616.41;;;3.86;85.66
60852;BME280;48553;50.766;2.900;2022-12-08T01:06:20;100615.91;;;3.84;85.82
60852;BME280;48553;50.766;2.900;2022-12-08T01:09:20;100610.47;;;3.84;85.76
60852;BME280;48553;50.766;2.900;2022-12-08T01:12:21;100607.28;;;3.82;85.98
60852;BME280;48553;50.766;2.900;2022-12-08T01:15:21;100607.75;;;3.84;85.66
60852;BME280;48553;50.766;2.900;2022-12-08T01:18:21;100609.47;;;3.80;85.37
60852;BME280;48553;50.766;2.900;2022-12-08T01:21:22;100612.19;;;3.80;85.47
60852;BME280;48553;50.766;2.900;2022-12-08T01:24:22;100606.25;;;3.78;85.60
60852;BME280;48553;50.766;2.900;2022-12-08T01:27:23;100608.44;;;3.75;85.32
60852;BME280;48553;50.766;2.900;2022-12-08T01:30:23;100603.81;;;3.76;85.10
60852;BME280;48553;50.766;2.900;2022-12-08T01:33:24;100608.22;;;3.72;85.29
60852;BME280;48553;50.766;2.900;2022-12-08T01:36:26;100597.38;;;3.72;85.25
60852;BME280;48553;50.766;2.900;2022-12-08T01:39:27;100593.06;;;3.71;85.33
60852;BME280;48553;50.766;2.900;2022-12-08T01:42:27;100597.16;;;3.68;85.23
60852;BME280;48553;50.766;2.900;2022-12-08T01:45:30;100597.47;;;3.67;85.39
60852;BME280;48553;50.766;2.900;2022-12-08T01:48:30;100585.03;;;3.66;85.17
60852;BME280;48553;50.766;2.900;2022-12-08T01:51:34;100591.53;;;3.65;85.29
60852;BME280;48553;50.766;2.900;2022-12-08T01:55:03;100586.91;;;3.65;85.11
60852;BME280;48553;50.766;2.900;2022-12-08T01:58:27;100598.84;;;3.64;84.89
60852;BME280;48553;50.766;2.900;2022-12-08T02:01:29;100590.50;;;3.61;85.17
60852;BME280;48553;50.766;2.900;2022-12-08T02:04:30;100599.44;;;3.61;84.89
60852;BME280;48553;50.766;2.900;2022-12-08T02:07:30;100588.59;;;3.61;84.82
60852;BME280;48553;50.766;2.900;2022-12-08T02:10:33;100589.16;;;3.58;84.84
60852;BME280;48553;50.766;2.900;2022-12-08T02:13:34;100582.97;;;3.58;84.76
60852;BME280;48553;50.766;2.900;2022-12-08T02:16:44;100577.81;;;3.56;84.43
60852;BME280;48553;50.766;2.900;2022-12-08T02:33:24;100583.59;;;3.49;84.48
60852;BME280;48553;50.766;2.900;2022-12-08T02:39:49;100567.34;;;3.49;84.41
60852;BME280;48553;50.766;2.900;2022-12-08T02:43:08;100571.97;;;3.49;84.65
60852;BME280;48553;50.766;2.900;2022-12-08T02:46:24;100562.53;;;3.46;84.76
60852;BME280;48553;50.766;2.900;2022-12-08T02:49:31;100562.00;;;3.44;84.80
60852;BME280;48553;50.766;2.900;2022-12-08T02:59:11;100548.47;;;3.44;85.10
60852;BME280;48553;50.766;2.900;2022-12-08T03:13:02;100532.00;;;3.41;85.44
60852;BME280;48553;50.766;2.900;2022-12-08T03:16:06;100520.84;;;3.42;85.23
60852;BME280;48553;50.766;2.900;2022-12-08T03:19:21;100521.16;;;3.41;85.13
60852;BME280;48553;50.766;2.900;2022-12-08T03:22:24;100516.25;;;3.43;85.26
60852;BME280;48553;50.766;2.900;2022-12-08T03:25:30;100517.34;;;3.42;84.98
60852;BME280;48553;50.766;2.900;2022-12-08T03:28:31;100511.94;;;3.42;85.22
60852;BME280;48553;50.766;2.900;2022-12-08T03:31:33;100517.06;;;3.43;85.41
60852;BME280;48553;50.766;2.900;2022-12-08T03:34:39;100521.09;;;3.46;85.37
60852;BME280;48553;50.766;2.900;2022-12-08T03:37:41;100514.03;;;3.45;85.34
60852;BME280;48553;50.766;2.900;2022-12-08T03:40:43;100504.03;;;3.45;85.39
60852;BME280;48553;50.766;2.900;2022-12-08T03:43:52;100499.41;;;3.46;85.54
60852;BME280;48553;50.766;2.900;2022-12-08T03:46:52;100485.88;;;3.46;85.61
60852;BME280;48553;50.766;2.900;2022-12-08T03:49:53;100489.38;;;3.46;85.41
60852;BME280;48553;50.766;2.900;2022-12-08T03:52:53;100484.75;;;3.47;85.99
60852;BME280;48553;50.766;2.900;2022-12-08T03:55:53;100481.25;;;3.46;85.81
60852;BME280;48553;50.766;2.900;2022-12-08T03:58:54;100482.56;;;3.49;85.82
60852;BME280;48553;50.766;2.900;2022-12-08T04:01:55;100478.25;;;3.48;85.99
60852;BME280;48553;50.766;2.900;2022-12-08T04:04:55;100475.84;;;3.46;86.16
60852;BME280;48553;50.766;2.900;2022-12-08T04:07:56;100472.84;;;3.48;86.13
60852;BME280;48553;50.766;2.900;2022-12-08T04:10:57;100467.72;;;3.46;86.47
60852;BME280;48553;50.766;2.900;2022-12-08T04:13:57;100478.25;;;3.48;86.24
60852;BME280;48553;50.766;2.900;2022-12-08T04:16:58;100463.09;;;3.47;86.51
60852;BME280;48553;50.766;2.900;2022-12-08T04:19:58;100464.78;;;3.43;86.60
60852;BME280;48553;50.766;2.900;2022-12-08T04:22:58;100466.09;;;3.45;86.59
60852;BME280;48553;50.766;2.900;2022-12-08T04:25:59;100458.28;;;3.44;86.65
60852;BME280;48553;50.766;2.900;2022-12-08T04:28:59;100456.34;;;3.44;86.56
60852;BME280;48553;50.766;2.900;2022-12-08T04:31:59;100454.66;;;3.48;86.42
60852;BME280;48553;50.766;2.900;2022-12-08T04:35:00;100456.28;;;3.49;86.55
60852;BME280;48553;50.766;2.900;2022-12-08T04:38:00;100456.28;;;3.49;86.38
60852;BME280;48553;50.766;2.900;2022-12-08T04:41:01;100455.47;;;3.49;86.41
60852;BME280;48553;50.766;2.900;2022-12-08T04:44:02;100457.38;;;3.48;86.24
60852;BME280;48553;50.766;2.900;2022-12-08T04:47:02;100448.47;;;3.48;86.20
60852;BME280;48553;50.766;2.900;2022-12-08T04:50:03;100449.53;;;3.47;86.27
60852;BME280;48553;50.766;2.900;2022-12-08T04:53:04;100452.84;;;3.44;86.14
60852;BME280;48553;50.766;2.900;2022-12-08T04:56:10;100448.84;;;3.41;85.99
60852;BME280;48553;50.766;2.900;2022-12-08T04:59:10;100452.34;;;3.42;85.96
60852;BME280;48553;50.766;2.900;2022-12-08T05:02:11;100453.13;;;3.42;85.94
60852;BME280;48553;50.766;2.900;2022-12-08T05:05:12;100448.03;;;3.41;85.85
60852;BME280;48553;50.766;2.900;2022-12-08T05:08:12;100447.53;;;3.39;85.86
60852;BME280;48553;50.766;2.900;2022-12-08T05:11:13;100443.47;;;3.36;85.71
60852;BME280;48553;50.766;2.900;2022-12-08T05:14:14;100439.41;;;3.39;85.69
60852;BME280;48553;50.766;2.900;2022-12-08T05:17:15;100433.75;;;3.35;85.73
60852;BME280;48553;50.766;2.900;2022-12-08T05:20:16;100431.66;;;3.32;85.45
60852;BME280;48553;50.766;2.900;2022-12-08T05:23:17;100433.53;;;3.31;85.49
60852;BME280;48553;50.766;2.900;2022-12-08T05:26:17;100426.00;;;3.28;85.49
60852;BME280;48553;50.766;2.900;2022-12-08T05:29:17;100416.78;;;3.29;85.34
60852;BME280;48553;50.766;2.900;2022-12-08T05:32:18;100421.38;;;3.29;85.37
60852;BME280;48553;50.766;2.900;2022-12-08T05:35:18;100405.44;;;3.27;85.10
60852;BME280;48553;50.766;2.900;2022-12-08T05:38:18;100405.22;;;3.24;85.29
60852;BME280;48553;50.766;2.900;2022-12-08T05:41:19;100398.72;;;3.25;85.11
60852;BME280;48553;50.766;2.900;2022-12-08T05:44:20;100400.31;;;3.26;84.94
60852;BME280;48553;50.766;2.900;2022-12-08T05:47:20;100414.13;;;3.24;84.92
60852;BME280;48553;50.766;2.900;2022-12-08T05:50:21;100405.81;;;3.21;84.71
60852;BME280;48553;50.766;2.900;2022-12-08T05:53:21;100405.00;;;3.20;84.96
60852;BME280;48553;50.766;2.900;2022-12-08T05:56:22;100408.53;;;3.21;84.45
60852;BME280;48553;50.766;2.900;2022-12-08T05:59:23;100406.09;;;3.19;84.64
60852;BME280;48553;50.766;2.900;2022-12-08T06:02:24;100409.09;;;3.18;84.68
60852;BME280;48553;50.766;2.900;2022-12-08T06:05:24;100392.56;;;3.19;84.43
60852;BME280;48553;50.766;2.900;2022-12-08T06:08:24;100403.69;;;3.18;84.63
60852;BME280;48553;50.766;2.900;2022-12-08T06:11:27;100394.75;;;3.17;84.40
60852;BME280;48553;50.766;2.900;2022-12-08T06:14:28;100399.66;;;3.15;84.65
60852;BME280;48553;50.766;2.900;2022-12-08T06:17:28;100396.75;;;3.11;84.70
60852;BME280;48553;50.766;2.900;2022-12-08T06:20:29;100395.66;;;3.12;84.88
60852;BME280;48553;50.766;2.900;2022-12-08T06:23:29;100394.63;;;3.08;84.66
60852;BME280;48553;50.766;2.900;2022-12-08T06:26:30;100387.31;;;3.09;84.82
60852;BME280;48553;50.766;2.900;2022-12-08T06:29:30;100400.53;;;3.10;84.91
60852;BME280;48553;50.766;2.900;2022-12-08T06:32:31;100389.19;;;3.08;84.62
60852;BME280;48553;50.766;2.900;2022-12-08T06:35:31;100388.13;;;3.09;84.50
60852;BME280;48553;50.766;2.900;2022-12-08T06:38:32;100389.00;;;3.05;84.45
60852;BME280;48553;50.766;2.900;2022-12-08T06:41:33;100392.50;;;3.05;84.44
60852;BME280;48553;50.766;2.900;2022-12-08T06:44:53;100392.50;;;3.05;84.24
60852;BME280;48553;50.766;2.900;2022-12-08T06:47:54;100394.69;;;3.03;84.47
60852;BME280;48553;50.766;2.900;2022-12-08T06:50:54;100395.50;;;3.04;84.51
60852;BME280;48553;50.766;2.900;2022-12-08T06:53:55;100391.75;;;3.00;84.57
60852;BME280;48553;50.766;2.900;2022-12-08T06:56:55;100387.19;;;3.00;84.28
60852;BME280;48553;50.766;2.900;2022-12-08T06:59:56;100388.25;;;2.99;84.72
60852;BME280;48553;50.766;2.900;2022-12-08T07:02:56;100382.06;;;2.99;84.27
60852;BME280;48553;50.766;2.900;2022-12-08T07:05:57;100389.66;;;2.97;84.67
60852;BME280;48553;50.766;2.900;2022-12-08T07:08:57;100377.75;;;2.98;84.72
60852;BME280;48553;50.766;2.900;2022-12-08T07:11:58;100379.63;;;2.97;84.56
60852;BME280;48553;50.766;2.900;2022-12-08T07:14:58;100374.53;;;2.96;84.94
60852;BME280;48553;50.766;2.900;2022-12-08T07:17:59;100383.16;;;2.98;84.53
60852;BME280;48553;50.766;2.900;2022-12-08T07:21:07;100376.41;;;2.95;84.71
60852;BME280;48553;50.766;2.900;2022-12-08T07:24:08;100360.16;;;2.95;84.52
60852;BME280;48553;50.766;2.900;2022-12-08T07:27:09;100359.69;;;2.93;84.91
60852;BME280;48553;50.766;2.900;2022-12-08T07:30:10;100369.13;;;2.96;84.67
60852;BME280;48553;50.766;2.900;2022-12-08T07:33:10;100374.00;;;2.93;84.71
60852;BME280;48553;50.766;2.900;2022-12-08T07:36:11;100364.00;;;2.94;84.54
60852;BME280;48553;50.766;2.900;2022-12-08T07:39:11;100372.09;;;2.94;84.79
60852;BME280;48553;50.766;2.900;2022-12-08T07:42:12;100365.91;;;2.93;84.47
60852;BME280;48553;50.766;2.900;2022-12-08T07:45:12;100371.41;;;2.88;84.56
60852;BME280;48553;50.766;2.900;2022-12-08T07:48:13;100371.41;;;2.88;84.95
60852;BME280;48553;50.766;2.900;2022-12-08T07:51:14;100367.56;;;2.89;84.65
60852;BME280;48553;50.766;2.900;2022-12-08T07:54:15;100372.47;;;2.87;84.71
60852;BME280;48553;50.766;2.900;2022-12-08T07:57:15;100371.41;;;2.88;84.90
60852;BME280;48553;50.766;2.900;2022-12-08T08:00:17;100382.22;;;2.88;84.57
60852;BME280;48553;50.766;2.900;2022-12-08T08:03:17;100378.47;;;2.84;84.59
60852;BME280;48553;50.766;2.900;2022-12-08T08:06:18;100373.59;;;2.86;84.48
60852;BME280;48553;50.766;2.900;2022-12-08T08:09:18;100378.41;;;2.89;84.68
60852;BME280;48553;50.766;2.900;2022-12-08T08:12:19;100374.91;;;2.89;84.79
60852;BME280;48553;50.766;2.900;2022-12-08T08:15:19;100372.97;;;2.89;84.44
60852;BME280;48553;50.766;2.900;2022-12-08T08:18:20;100376.28;;;2.86;84.40
60852;BME280;48553;50.766;2.900;2022-12-08T08:21:21;100378.41;;;2.89;84.78
60852;BME280;48553;50.766;2.900;2022-12-08T08:24:21;100375.69;;;2.89;84.17
60852;BME280;48553;50.766;2.900;2022-12-08T08:27:23;100364.88;;;2.89;84.32
60852;BME280;48553;50.766;2.900;2022-12-08T08:30:24;100358.66;;;2.89;84.14
60852;BME280;48553;50.766;2.900;2022-12-08T08:33:24;100360.06;;;2.86;84.19
60852;BME280;48553;50.766;2.900;2022-12-08T08:36:25;100350.53;;;2.89;84.16
60852;BME280;48553;50.766;2.900;2022-12-08T08:39:25;100346.44;;;2.91;84.19
60852;BME280;48553;50.766;2.900;2022-12-08T08:42:26;100343.13;;;2.95;83.86
60852;BME280;48553;50.766;2.900;2022-12-08T08:45:27;100347.16;;;2.97;83.72
60852;BME280;48553;50.766;2.900;2022-12-08T08:48:29;100345.00;;;3.13;83.34
60852;BME280;48553;50.766;2.900;2022-12-08T08:51:29;100352.53;;;3.49;81.88
60852;BME280;48553;50.766;2.900;2022-12-08T08:54:30;100344.00;;;3.55;81.18
60852;BME280;48553;50.766;2.900;2022-12-08T08:57:31;100349.97;;;3.25;82.38
60852;BME280;48553;50.766;2.900;2022-12-08T09:00:31;100349.84;;;3.16;82.89
60852;BME280;48553;50.766;2.900;2022-12-08T09:03:32;100350.13;;;3.14;83.06
60852;BME280;48553;50.766;2.900;2022-12-08T09:06:32;100350.13;;;3.14;83.36
60852;BME280;48553;50.766;2.900;2022-12-08T09:09:33;100356.34;;;3.15;83.29
60852;BME280;48553;50.766;2.900;2022-12-08T09:12:33;100344.13;;;3.18;83.47
60852;BME280;48553;50.766;2.900;2022-12-08T09:15:34;100349.75;;;3.21;83.18
60852;BME280;48553;50.766;2.900;2022-12-08T09:18:34;100343.53;;;3.95;81.38
60852;BME280;48553;50.766;2.900;2022-12-08T09:21:34;100346.97;;;4.65;77.47
60852;BME280;48553;50.766;2.900;2022-12-08T09:24:35;100328.97;;;4.18;79.02
60852;BME280;48553;50.766;2.900;2022-12-08T09:27:35;100339.53;;;3.92;80.16
60852;BME280;48553;50.766;2.900;2022-12-08T09:30:36;100340.81;;;3.67;80.99
60852;BME280;48553;50.766;2.900;2022-12-08T09:33:36;100347.25;;;3.71;81.38
60852;BME280;48553;50.766;2.900;2022-12-08T09:36:37;100337.97;;;4.42;79.12
60852;BME280;48553;50.766;2.900;2022-12-08T09:39:37;100333.56;;;4.82;77.28
60852;BME280;48553;50.766;2.900;2022-12-08T09:42:43;100335.78;;;5.02;76.58
60852;BME280;48553;50.766;2.900;2022-12-08T09:45:47;100334.00;;;5.20;76.31
60852;BME280;48553;50.766;2.900;2022-12-08T09:48:51;100332.44;;;5.28;76.08
60852;BME280;48553;50.766;2.900;2022-12-08T09:51:55;100335.88;;;5.42;75.96
60852;BME280;48553;50.766;2.900;2022-12-08T09:55:02;100339.31;;;5.57;75.72
60852;BME280;48553;50.766;2.900;2022-12-08T09:58:04;100330.88;;;5.67;75.78
60852;BME280;48553;50.766;2.900;2022-12-08T10:01:12;100335.91;;;5.82;75.34
60852;BME280;48553;50.766;2.900;2022-12-08T10:07:44;100332.66;;;6.03;75.00
60852;BME280;48553;50.766;2.900;2022-12-08T10:10:53;100327.72;;;6.14;74.86
60852;BME280;48553;50.766;2.900;2022-12-08T10:17:43;100330.16;;;6.33;74.63
60852;BME280;48553;50.766;2.900;2022-12-08T10:20:47;100330.19;;;6.41;74.19
60852;BME280;48553;50.766;2.900;2022-12-08T10:23:51;100319.31;;;6.50;74.41
60852;BME280;48553;50.766;2.900;2022-12-08T10:26:55;100316.59;;;6.59;73.99
60852;BME280;48553;50.766;2.900;2022-12-08T10:29:55;100314.19;;;6.75;73.81
60852;BME280;48553;50.766;2.900;2022-12-08T10:32:55;100305.69;;;6.85;73.84
60852;BME280;48553;50.766;2.900;2022-12-08T10:35:57;100300.06;;;6.99;73.72
60852;BME280;48553;50.766;2.900;2022-12-08T10:39:00;100302.59;;;7.13;73.56
60852;BME280;48553;50.766;2.900;2022-12-08T10:45:25;100295.69;;;7.24;73.59
60852;BME280;48553;50.766;2.900;2022-12-08T10:48:28;100296.94;;;7.35;73.54
60852;BME280;48553;50.766;2.900;2022-12-08T10:54:34;100296.16;;;7.35;74.05
60852;BME280;48553;50.766;2.900;2022-12-08T10:57:37;100293.53;;;7.47;73.81
60852;BME280;48553;50.766;2.900;2022-12-08T11:00:37;100295.94;;;7.48;73.72
60852;BME280;48553;50.766;2.900;2022-12-08T11:03:44;100293.53;;;7.47;73.63
60852;BME280;48553;50.766;2.900;2022-12-08T11:06:48;100279.28;;;7.50;74.03
60852;BME280;48553;50.766;2.900;2022-12-08T11:09:53;100272.88;;;7.46;74.28
60852;BME280;48553;50.766;2.900;2022-12-08T11:13:06;100270.63;;;7.48;74.91
60852;BME280;48553;50.766;2.900;2022-12-08T11:16:15;100258.56;;;7.49;74.44
60852;BME280;48553;50.766;2.900;2022-12-08T11:19:18;100265.63;;;7.50;74.72
60852;BME280;48553;50.766;2.900;2022-12-08T11:25:22;100256.19;;;7.47;75.10
60852;BME280;48553;50.766;2.900;2022-12-08T11:28:24;100257.47;;;7.50;75.34
60852;BME280;48553;50.766;2.900;2022-12-08T11:31:31;100252.00;;;7.50;75.52
60852;BME280;48553;50.766;2.900;2022-12-08T11:34:41;100250.69;;;7.56;75.03
60852;BME280;48553;50.766;2.900;2022-12-08T11:37:43;100247.31;;;7.59;75.21
60852;BME280;48553;50.766;2.900;2022-12-08T11:40:44;100241.97;;;7.63;75.40
60852;BME280;48553;50.766;2.900;2022-12-08T11:46:57;100234.56;;;7.72;75.39
60852;BME280;48553;50.766;2.900;2022-12-08T11:50:24;100230.72;;;7.73;75.10
60852;BME280;48553;50.766;2.900;2022-12-08T11:53:32;100230.03;;;7.76;75.56
60852;BME280;48553;50.766;2.900;2022-12-08T11:56:39;100223.94;;;7.79;75.80
60852;BME280;48553;50.766;2.900;2022-12-08T11:59:48;100217.81;;;7.82;75.96
60852;BME280;48553;50.766;2.900;2022-12-08T12:03:03;100220.22;;;7.84;75.98
60852;BME280;48553;50.766;2.900;2022-12-08T12:19:15;100206.88;;;8.12;75.71
60852;BME280;48553;50.766;2.900;2022-12-08T12:22:19;100203.34;;;8.11;75.82
60852;BME280;48553;50.766;2.900;2022-12-08T12:25:23;100191.44;;;8.16;76.26
60852;BME280;48553;50.766;2.900;2022-12-08T12:28:28;100196.22;;;8.19;75.93
60852;BME280;48553;50.766;2.900;2022-12-08T12:31:33;100189.28;;;8.22;76.61
60852;BME280;48553;50.766;2.900;2022-12-08T12:34:37;100202.03;;;8.18;76.71
60852;BME280;48553;50.766;2.900;2022-12-08T12:37:41;100197.69;;;8.16;76.69
60852;BME280;48553;50.766;2.900;2022-12-08T12:40:41;100198.16;;;8.19;76.72
60852;BME280;48553;50.766;2.900;2022-12-08T12:44:07;100188.03;;;8.19;76.75
60852;BME280;48553;50.766;2.900;2022-12-08T12:47:12;100189.50;;;8.16;77.35
60852;BME280;48553;50.766;2.900;2022-12-08T12:50:40;100186.97;;;8.11;77.34
60852;BME280;48553;50.766;2.900;2022-12-08T12:57:14;100194.16;;;7.95;77.30
60852;BME280;48553;50.766;2.900;2022-12-08T13:00:18;100188.56;;;7.91;77.49
60852;BME280;48553;50.766;2.900;2022-12-08T13:03:18;100191.38;;;7.74;76.45
60852;BME280;48553;50.766;2.900;2022-12-08T13:06:32;100185.63;;;7.76;76.50
60852;BME280;48553;50.766;2.900;2022-12-08T13:09:37;100188.25;;;7.63;76.43
60852;BME280;48553;50.766;2.900;2022-12-08T13:12:38;100192.56;;;7.64;75.48
60852;BME280;48553;50.766;2.900;2022-12-08T13:19:03;100177.00;;;7.65;76.64
60852;BME280;48553;50.766;2.900;2022-12-08T13:32:03;100172.03;;;7.67;77.26
60852;BME280;48553;50.766;2.900;2022-12-08T13:35:03;100169.19;;;7.63;76.29
60852;BME280;48553;50.766;2.900;2022-12-08T13:38:05;100166.78;;;7.62;77.76
60852;BME280;48553;50.766;2.900;2022-12-08T13:41:12;100161.31;;;7.62;76.58
60852;BME280;48553;50.766;2.900;2022-12-08T13:44:22;100157.44;;;7.63;77.89
60852;BME280;48553;50.766;2.900;2022-12-08T13:47:29;100165.97;;;7.61;78.13
60852;BME280;48553;50.766;2.900;2022-12-08T13:50:38;100161.03;;;7.55;77.68
60852;BME280;48553;50.766;2.900;2022-12-08T13:53:43;100158.41;;;7.37;77.02
60852;BME280;48553;50.766;2.900;2022-12-08T13:56:46;100165.66;;;7.24;77.18
60852;BME280;48553;50.766;2.900;2022-12-08T13:59:47;100164.91;;;7.15;77.61
60852;BME280;48553;50.766;2.900;2022-12-08T14:02:49;100161.09;;;7.07;77.42
60852;BME280;48553;50.766;2.900;2022-12-08T14:05:50;100165.47;;;7.00;77.88
60852;BME280;48553;50.766;2.900;2022-12-08T14:08:54;100170.16;;;6.90;78.04
60852;BME280;48553;50.766;2.900;2022-12-08T14:11:58;100167.09;;;6.83;78.31
60852;BME280;48553;50.766;2.900;2022-12-08T14:15:03;100168.56;;;6.72;78.48
60852;BME280;48553;50.766;2.900;2022-12-08T14:18:18;100169.41;;;6.64;78.91
60852;BME280;48553;50.766;2.900;2022-12-08T14:21:20;100168.44;;;6.60;79.40
60852;BME280;48553;50.766;2.900;2022-12-08T14:24:22;100177.59;;;6.55;79.65
60852;BME280;48553;50.766;2.900;2022-12-08T14:27:24;100171.03;;;6.47;79.78
60852;BME280;48553;50.766;2.900;2022-12-08T14:30:33;100172.47;;;6.45;79.92
60852;BME280;48553;50.766;2.900;2022-12-08T14:33:35;100177.94;;;6.45;80.08
60852;BME280;48553;50.766;2.900;2022-12-08T14:36:35;100178.25;;;6.43;79.76
60852;BME280;48553;50.766;2.900;2022-12-08T14:39:36;100179.22;;;6.39;79.39
60852;BME280;48553;50.766;2.900;2022-12-08T14:42:46;100176.66;;;6.34;79.75
60852;BME280;48553;50.766;2.900;2022-12-08T14:45:48;100176.47;;;6.30;80.06
60852;BME280;48553;50.766;2.900;2022-12-08T14:48:49;100182.25;;;6.28;80.33
60852;BME280;48553;50.766;2.900;2022-12-08T14:51:50;100173.44;;;6.23;80.19
60852;BME280;48553;50.766;2.900;2022-12-08T14:54:51;100167.03;;;6.19;80.50
60852;BME280;48553;50.766;2.900;2022-12-08T14:57:52;100170.72;;;6.14;80.50
60852;BME280;48553;50.766;2.900;2022-12-08T15:00:55;100163.03;;;6.07;80.32
60852;BME280;48553;50.766;2.900;2022-12-08T15:04:24;100165.28;;;6.05;80.28
60852;BME280;48553;50.766;2.900;2022-12-08T15:07:49;100163.03;;;5.99;80.35
60852;BME280;48553;50.766;2.900;2022-12-08T15:11:13;100159.66;;;5.93;80.82
60852;BME280;48553;50.766;2.900;2022-12-08T15:14:28;100158.03;;;5.92;80.87
60852;BME280;48553;50.766;2.900;2022-12-08T15:20:41;100157.72;;;5.85;80.60
60852;BME280;48553;50.766;2.900;2022-12-08T15:23:45;100158.66;;;5.80;80.98
60852;BME280;48553;50.766;2.900;2022-12-08T15:26:49;100167.63;;;5.81;81.13
60852;BME280;48553;50.766;2.900;2022-12-08T15:29:50;100175.94;;;5.76;81.44
60852;BME280;48553;50.766;2.900;2022-12-08T15:32:51;100177.06;;;5.75;81.23
60852;BME280;48553;50.766;2.900;2022-12-08T15:35:53;100172.72;;;5.74;81.18
60852;BME280;48553;50.766;2.900;2022-12-08T15:38:53;100176.88;;;5.71;81.46
60852;BME280;48553;50.766;2.900;2022-12-08T15:41:54;100167.47;;;5.69;81.70
60852;BME280;48553;50.766;2.900;2022-12-08T15:44:54;100171.28;;;5.68;81.61
60852;BME280;48553;50.766;2.900;2022-12-08T15:47:55;100172.41;;;5.67;81.71
60852;BME280;48553;50.766;2.900;2022-12-08T15:50:56;100166.78;;;5.63;81.87
60852;BME280;48553;50.766;2.900;2022-12-08T15:53:56;100169.50;;;5.63;81.87
60852;BME280;48553;50.766;2.900;2022-12-08T15:56:57;100155.47;;;5.61;82.05
60852;BME280;48553;50.766;2.900;2022-12-08T15:59:57;100157.22;;;5.57;82.04
60852;BME280;48553;50.766;2.900;2022-12-08T16:03:00;100160.53;;;5.54;82.25
60852;BME280;48553;50.766;2.900;2022-12-08T16:06:01;100154.63;;;5.52;82.42
60852;BME280;48553;50.766;2.900;2022-12-08T16:09:02;100162.31;;;5.50;82.18
60852;BME280;48553;50.766;2.900;2022-12-08T16:12:04;100157.66;;;5.50;82.12
60852;BME280;48553;50.766;2.900;2022-12-08T16:15:23;100150.13;;;5.47;82.27
60852;BME280;48553;50.766;2.900;2022-12-08T16:18:26;100152.38;;;5.45;81.79
60852;BME280;48553;50.766;2.900;2022-12-08T16:24:35;100145.66;;;5.42;81.99
60852;BME280;48553;50.766;2.900;2022-12-08T16:27:37;100151.72;;;5.39;82.04
60852;BME280;48553;50.766;2.900;2022-12-08T16:30:38;100146.09;;;5.36;82.20
60852;BME280;48553;50.766;2.900;2022-12-08T16:33:39;100152.66;;;5.35;82.27
60852;BME280;48553;50.766;2.900;2022-12-08T16:36:40;100138.09;;;5.31;82.51
60852;BME280;48553;50.766;2.900;2022-12-08T16:39:40;100137.78;;;5.32;82.52
60852;BME280;48553;50.766;2.900;2022-12-08T16:42:41;100148.66;;;5.32;82.27
60852;BME280;48553;50.766;2.900;2022-12-08T16:45:49;100144.97;;;5.28;82.21
60852;BME280;48553;50.766;2.900;2022-12-08T16:48:49;100152.81;;;5.30;82.20
60852;BME280;48553;50.766;2.900;2022-12-08T16:51:49;100145.91;;;5.23;82.00
60852;BME280;48553;50.766;2.900;2022-12-08T16:54:50;100149.44;;;5.24;82.07
60852;BME280;48553;50.766;2.900;2022-12-08T16:57:50;100146.38;;;5.17;81.78
60852;BME280;48553;50.766;2.900;2022-12-08T17:00:51;100144.78;;;5.16;81.70
60852;BME280;48553;50.766;2.900;2022-12-08T17:03:51;100143.97;;;5.15;81.77
60852;BME280;48553;50.766;2.900;2022-12-08T17:06:52;100144.91;;;5.11;82.14
60852;BME280;48553;50.766;2.900;2022-12-08T17:09:52;100143.94;;;5.07;81.92
60852;BME280;48553;50.766;2.900;2022-12-08T17:12:54;100151.75;;;5.08;81.93
60852;BME280;48553;50.766;2.900;2022-12-08T17:15:54;100140.25;;;5.02;81.84
60852;BME280;48553;50.766;2.900;2022-12-08T17:18:55;100141.06;;;5.03;81.51
60852;BME280;48553;50.766;2.900;2022-12-08T17:21:55;100151.72;;;4.99;81.44
60852;BME280;48553;50.766;2.900;2022-12-08T17:24:56;100151.56;;;4.96;81.50
60852;BME280;48553;50.766;2.900;2022-12-08T17:27:56;100144.53;;;4.95;81.41
60852;BME280;48553;50.766;2.900;2022-12-08T17:30:57;100147.56;;;4.93;81.46
60852;BME280;48553;50.766;2.900;2022-12-08T17:34:02;100150.09;;;4.90;81.29
60852;BME280;48553;50.766;2.900;2022-12-08T17:37:03;100142.59;;;4.87;81.21
60852;BME280;48553;50.766;2.900;2022-12-08T17:40:04;100140.00;;;4.81;81.09